Time;durP1;ratioP1;P1;durP2;ratioP2;P2;SDS_P1;SDS_P2;PMS_P1;PMS_P2;Temp;Humidity;BMP_temperature;BMP_pressure;BME280_temperature;BME280_humidity;BME280_pressure;Samples;Min_cycle;Max_cycle;Signal;HPM_P1;HPM_P2
2022/04/02 00:00:06;;;;;;;14.68;12.40;;;0.20;99.90;;;;;;5073568;28;20207;-88
2022/04/02 00:02:33;;;;;;;20.90;14.57;;;0.00;99.90;;;;;;5079147;28;20203;-90
2022/04/02 00:05:01;;;;;;;16.70;14.20;;;;;;;;;;5073542;28;20203;-89
2022/04/02 00:07:29;;;;;;;16.30;13.70;;;0.10;99.90;;;;;;5074322;28;20231;-89
2022/04/02 00:09:58;;;;;;;19.17;14.32;;;0.20;99.90;;;;;;5092997;28;20222;-90
2022/04/02 00:12:25;;;;;;;14.85;13.07;;;0.10;99.90;;;;;;5078403;28;20286;-88
2022/04/02 00:14:54;;;;;;;18.90;14.25;;;;;;;;;;5085470;28;20267;-89
2022/04/02 00:17:23;;;;;;;18.55;13.55;;;;;;;;;;5092215;28;20290;-89
2022/04/02 00:19:52;;;;;;;12.65;10.73;;;0.10;99.90;;;;;;5080568;28;20195;-89
2022/04/02 00:22:19;;;;;;;16.10;13.43;;;0.00;99.90;;;;;;5072567;28;20241;-88
2022/04/02 00:24:47;;;;;;;17.77;13.57;;;0.10;99.90;;;;;;5083034;28;20248;-89
2022/04/02 00:27:15;;;;;;;19.42;15.85;;;0.10;99.90;;;;;;5080725;28;20205;-89
2022/04/02 00:29:43;;;;;;;23.65;17.63;;;;;;;;;;5093569;28;20237;-89
2022/04/02 00:32:13;;;;;;;15.02;11.70;;;;;;;;;;5092839;28;20194;-89
2022/04/02 00:34:41;;;;;;;20.23;17.23;;;;;;;;;;5077684;28;20203;-88
2022/04/02 00:37:09;;;;;;;21.52;17.05;;;-0.40;99.90;;;;;;5072450;28;20235;-91
2022/04/02 00:39:38;;;;;;;21.50;15.18;;;;;;;;;;5091073;28;20210;-89
2022/04/02 00:42:06;;;;;;;18.55;14.93;;;0.40;99.90;;;;;;5072653;28;20273;-89
2022/04/02 00:44:33;;;;;;;23.35;16.75;;;0.10;99.90;;;;;;5084744;28;20870;-90
2022/04/02 00:47:00;;;;;;;20.30;15.82;;;;;;;;;;5093192;28;20213;-89
2022/04/02 00:49:29;;;;;;;23.75;15.60;;;;;;;;;;5075929;28;20666;-90
2022/04/02 00:51:56;;;;;;;22.75;16.67;;;0.10;99.90;;;;;;5072144;28;20211;-89
2022/04/02 00:54:24;;;;;;;19.48;15.60;;;;;;;;;;5087805;28;20783;-90
2022/04/02 00:56:51;;;;;;;26.60;17.67;;;0.10;99.90;;;;;;5080572;28;20312;-90
2022/04/02 00:59:18;;;;;;;23.73;16.00;;;;;;;;;;5083409;28;20199;-89
2022/04/02 01:01:45;;;;;;;18.48;13.65;;;0.20;99.90;;;;;;5092765;28;20202;-89
2022/04/02 01:04:13;;;;;;;21.40;17.77;;;;;;;;;;5081647;28;20223;-89
2022/04/02 01:06:42;;;;;;;20.40;15.23;;;0.20;99.90;;;;;;5072418;28;20207;-90
2022/04/02 01:09:10;;;;;;;16.25;12.45;;;;;;;;;;5085908;28;20281;-90
2022/04/02 01:11:39;;;;;;;17.33;13.27;;;0.10;99.90;;;;;;5092375;28;20252;-89
2022/04/02 01:14:08;;;;;;;20.92;14.60;;;;;;;;;;5078944;28;20277;-89
2022/04/02 01:16:35;;;;;;;22.27;16.45;;;;;;;;;;5072464;28;20203;-89
2022/04/02 01:19:03;;;;;;;17.02;14.75;;;;;;;;;;5077190;28;20199;-89
2022/04/02 01:21:32;;;;;;;23.35;16.58;;;0.10;99.90;;;;;;5071772;28;20200;-90
2022/04/02 01:24:01;;;;;;;16.75;13.32;;;0.10;99.90;;;;;;5088940;28;20234;-88
2022/04/02 01:26:29;;;;;;;20.27;15.70;;;0.00;99.90;;;;;;5089812;28;20215;-89
2022/04/02 01:28:57;;;;;;;23.42;16.52;;;0.00;99.90;;;;;;5072108;28;20800;-89
2022/04/02 01:31:25;;;;;;;18.15;12.45;;;;;;;;;;5073287;28;20196;-88
2022/04/02 01:33:54;;;;;;;20.60;15.63;;;0.10;99.90;;;;;;5085872;28;20543;-90
2022/04/02 01:36:22;;;;;;;20.00;15.52;;;;;;;;;;5072047;28;20233;-90
2022/04/02 01:38:50;;;;;;;23.60;17.33;;;0.10;99.90;;;;;;5088017;28;20207;-88
2022/04/02 01:41:19;;;;;;;20.13;16.30;;;0.20;99.90;;;;;;5071448;28;20199;-89
2022/04/02 01:43:48;;;;;;;23.60;17.63;;;0.20;99.90;;;;;;5084500;28;20696;-89
2022/04/02 01:46:15;;;;;;;21.65;15.05;;;0.20;99.90;;;;;;5091659;28;20297;-89
2022/04/02 01:48:43;;;;;;;21.30;15.85;;;;;;;;;;5090463;28;20243;-89
2022/04/02 01:51:10;;;;;;;27.55;19.17;;;;;;;;;;5089618;28;20248;-91
2022/04/02 01:53:37;;;;;;;18.30;15.18;;;;;;;;;;5080143;28;20459;-89
2022/04/02 01:56:05;;;;;;;17.92;14.40;;;0.30;99.90;;;;;;5085559;28;20199;-89
2022/04/02 01:58:33;;;;;;;21.90;17.33;;;0.40;99.90;;;;;;5071055;28;20201;-89
2022/04/02 02:01:00;;;;;;;18.55;15.00;;;;;;;;;;5076198;28;20233;-89
2022/04/02 02:03:27;;;;;;;22.15;16.02;;;;;;;;;;5088390;28;20834;-89
2022/04/02 02:05:55;;;;;;;25.77;17.67;;;;;;;;;;5074423;28;20263;-89
2022/04/02 02:08:23;;;;;;;22.98;16.40;;;;;;;;;;5087024;28;20192;-88
2022/04/02 02:10:50;;;;;;;18.85;15.70;;;;;;;;;;5074869;28;20215;-89
2022/04/02 02:13:17;;;;;;;28.52;16.98;;;;;;;;;;5080748;28;20248;-90
2022/04/02 02:15:45;;;;;;;19.58;16.38;;;0.70;99.90;;;;;;5075108;28;20206;-90
2022/04/02 02:18:13;;;;;;;23.95;15.60;;;;;;;;;;5090478;28;20218;-89
2022/04/02 02:20:40;;;;;;;24.17;17.48;;;;;;;;;;5086450;28;20191;-89
2022/04/02 02:23:08;;;;;;;20.30;15.80;;;;;;;;;;5072815;28;20257;-89
2022/04/02 02:25:35;;;;;;;19.92;16.13;;;;;;;;;;5090891;28;20198;-89
2022/04/02 02:28:04;;;;;;;17.63;15.65;;;;;;;;;;5089891;28;20237;-89
2022/04/02 02:30:31;;;;;;;20.13;15.95;;;;;;;;;;5090450;28;20680;-89
2022/04/02 02:35:50;;;;;;;22.50;17.20;;;;;;;;;;5076625;28;20207;-88
2022/04/02 02:38:19;;;;;;;21.92;16.00;;;;;;;;;;5089138;28;20202;-89
2022/04/02 02:40:46;;;;;;;21.63;16.70;;;;;;;;;;5075356;28;20763;-89
2022/04/02 02:43:14;;;;;;;22.13;17.05;;;;;;;;;;5090500;28;20309;-89
2022/04/02 02:45:41;;;;;;;18.77;14.95;;;;;;;;;;5070427;28;20712;-90
2022/04/02 02:48:10;;;;;;;18.67;15.07;;;0.60;99.90;;;;;;5081874;28;20633;-90
2022/04/02 02:50:38;;;;;;;20.10;15.05;;;;;;;;;;5091341;28;20206;-90
2022/04/02 02:53:05;;;;;;;16.95;14.90;;;0.70;99.90;;;;;;5079640;28;20199;-89
2022/04/02 02:55:33;;;;;;;27.60;14.68;;;0.50;99.90;;;;;;5089437;28;20218;-89
2022/04/02 02:58:00;;;;;;;18.92;15.05;;;0.80;99.90;;;;;;5081571;28;20223;-90
2022/04/02 03:00:27;;;;;;;20.67;15.07;;;;;;;;;;5070707;28;20262;-89
2022/04/02 03:02:54;;;;;;;18.08;14.27;;;;;;;;;;5070956;28;20207;-90
2022/04/02 03:05:23;;;;;;;17.95;14.10;;;0.50;99.90;;;;;;5070433;28;20253;-89
2022/04/02 03:07:51;;;;;;;15.55;12.70;;;;;;;;;;5085293;28;20214;-89
2022/04/02 03:10:19;;;;;;;19.17;15.10;;;0.90;99.90;;;;;;5070380;28;20203;-89
2022/04/02 03:12:47;;;;;;;15.80;12.52;;;0.60;99.90;;;;;;5071804;28;20250;-90
2022/04/02 03:15:15;;;;;;;16.55;12.25;;;0.50;99.90;;;;;;5071298;28;20195;-88
2022/04/02 03:17:43;;;;;;;15.88;12.88;;;;;;;;;;5070131;28;20272;-89
2022/04/02 03:20:12;;;;;;;18.00;14.35;;;0.50;99.90;;;;;;5085595;28;20206;-89
2022/04/02 03:22:41;;;;;;;18.48;13.55;;;;;;;;;;5088191;28;20214;-89
2022/04/02 03:25:09;;;;;;;23.95;14.45;;;0.40;99.90;;;;;;5090320;28;20250;-88
2022/04/02 03:27:37;;;;;;;14.88;13.32;;;0.80;99.90;;;;;;5075830;28;20221;-90
2022/04/02 03:30:05;;;;;;;13.35;11.63;;;0.60;99.90;;;;;;5069768;28;20210;-89
2022/04/02 03:32:33;;;;;;;17.48;12.90;;;0.80;99.90;;;;;;5082742;28;20263;-88
2022/04/02 03:35:00;;;;;;;19.70;12.80;;;0.70;99.90;;;;;;5075721;28;20273;-88
2022/04/02 03:37:28;;;;;;;15.80;14.07;;;;;;;;;;5081348;28;20264;-89
2022/04/02 03:39:57;;;;;;;17.17;14.02;;;0.40;99.90;;;;;;5052957;28;20258;-89
2022/04/02 03:42:25;;;;;;;32.58;14.13;;;0.40;99.90;;;;;;5069211;28;20206;-88
2022/04/02 03:44:52;;;;;;;14.68;12.13;;;0.80;99.90;;;;;;5068939;28;20219;-88
2022/04/02 03:47:22;;;;;;;15.18;11.98;;;0.50;99.90;;;;;;5083119;28;20198;-87
2022/04/02 03:49:50;;;;;;;17.58;12.85;;;0.50;99.90;;;;;;5089822;28;20217;-88
2022/04/02 03:52:18;;;;;;;19.42;13.98;;;0.50;99.90;;;;;;5078386;28;20210;-88
2022/04/02 03:54:45;;;;;;;17.50;13.55;;;0.50;99.90;;;;;;5069178;28;20702;-88
2022/04/02 03:57:15;;;;;;;18.20;12.48;;;-0.70;99.90;;;;;;5069477;28;20237;-88
2022/04/02 03:59:44;;;;;;;14.15;11.45;;;0.60;99.90;;;;;;5069354;28;20256;-88
2022/04/02 04:02:12;;;;;;;15.20;12.13;;;;;;;;;;5080235;28;20229;-88
2022/04/02 04:04:39;;;;;;;14.55;12.35;;;;;;;;;;5069062;28;20283;-88
2022/04/02 04:07:07;;;;;;;16.95;12.73;;;;;;;;;;5080566;28;20209;-88
2022/04/02 04:09:34;;;;;;;14.95;10.27;;;;;;;;;;5089837;28;20268;-88
2022/04/02 04:12:01;;;;;;;16.20;12.32;;;0.40;99.90;;;;;;5083769;28;20203;-88
2022/04/02 04:14:30;;;;;;;21.75;12.75;;;0.30;99.90;;;;;;5089841;28;20548;-88
2022/04/02 04:16:56;;;;;;;12.70;11.30;;;1.10;99.90;;;;;;5080357;28;20211;-88
2022/04/02 04:19:23;;;;;;;14.18;12.07;;;0.40;99.90;;;;;;5068814;28;20198;-88
2022/04/02 04:21:50;;;;;;;16.20;11.75;;;0.80;99.90;;;;;;5076730;28;20210;-88
2022/04/02 04:24:17;;;;;;;13.63;10.38;;;0.20;99.90;;;;;;5076006;28;20222;-88
2022/04/02 04:26:45;;;;;;;12.57;9.63;;;;;;;;;;5074541;28;20199;-88
2022/04/02 04:29:12;;;;;;;15.30;11.88;;;;;;;;;;5076619;28;20242;-89
2022/04/02 04:31:41;;;;;;;13.77;10.40;;;0.40;99.90;;;;;;5073955;28;20226;-89
2022/04/02 04:34:08;;;;;;;12.90;9.90;;;;;;;;;;5081391;28;20199;-89
2022/04/02 04:36:35;;;;;;;10.68;9.57;;;0.30;99.90;;;;;;5072091;28;20270;-89
2022/04/02 04:39:02;;;;;;;19.27;11.80;;;0.40;99.90;;;;;;5089302;28;20211;-89
2022/04/02 04:41:29;;;;;;;20.13;10.75;;;0.50;99.90;;;;;;5085290;28;20738;-88
2022/04/02 04:43:56;;;;;;;11.80;9.15;;;0.40;99.90;;;;;;5087317;28;20203;-88
2022/04/02 04:46:23;;;;;;;13.68;10.43;;;0.20;99.90;;;;;;5073267;28;20650;-89
2022/04/02 04:48:51;;;;;;;12.57;10.05;;;0.70;99.90;;;;;;5076472;28;20207;-88
2022/04/02 04:51:19;;;;;;;14.68;10.35;;;0.50;99.90;;;;;;5093216;28;20242;-88
2022/04/02 04:53:47;;;;;;;12.48;10.40;;;0.50;99.90;;;;;;5085535;28;20207;-89
2022/04/02 04:56:14;;;;;;;12.27;10.30;;;;;;;;;;5072644;28;20199;-89
2022/04/02 04:58:41;;;;;;;11.45;8.27;;;0.50;99.90;;;;;;5091350;28;20207;-88
2022/04/02 05:01:09;;;;;;;11.68;10.05;;;0.40;99.90;;;;;;5092753;28;20306;-89
2022/04/02 05:03:37;;;;;;;12.85;10.35;;;0.20;99.90;;;;;;5082264;28;20886;-87
2022/04/02 05:06:06;;;;;;;14.32;11.18;;;0.30;99.90;;;;;;5073233;28;20223;-89
2022/04/02 05:08:34;;;;;;;14.35;10.20;;;0.30;99.90;;;;;;5080287;28;20199;-89
2022/04/02 05:11:01;;;;;;;14.52;10.57;;;;;;;;;;5092597;28;20194;-88
2022/04/02 05:13:28;;;;;;;12.45;11.10;;;0.20;99.90;;;;;;5075941;28;20227;-88
2022/04/02 05:15:55;;;;;;;12.60;10.77;;;;;;;;;;5072475;28;20235;-88
2022/04/02 05:18:23;;;;;;;12.55;8.65;;;;;;;;;;5075049;28;20286;-88
2022/04/02 05:20:50;;;;;;;13.00;10.50;;;0.10;99.90;;;;;;5072339;28;20302;-89
2022/04/02 05:23:19;;;;;;;12.18;8.50;;;0.10;99.90;;;;;;5077214;28;20187;-87
2022/04/02 05:25:46;;;;;;;12.55;9.55;;;0.10;99.90;;;;;;5072203;28;20250;-89
2022/04/02 05:28:12;;;;;;;10.20;8.98;;;0.10;99.90;;;;;;5073192;28;20214;-88
2022/04/02 05:30:40;;;;;;;11.35;9.52;;;0.10;99.90;;;;;;5074158;28;20207;-88
2022/04/02 05:33:07;;;;;;;13.57;10.00;;;0.00;99.90;;;;;;5074227;28;20196;-88
2022/04/02 05:35:34;;;;;;;11.77;9.60;;;0.00;99.90;;;;;;5072605;28;20253;-88
2022/04/02 05:38:01;;;;;;;14.13;11.05;;;;;;;;;;5087686;28;20491;-88
2022/04/02 05:40:30;;;;;;;12.13;9.40;;;0.00;99.90;;;;;;5072244;28;20203;-88
2022/04/02 05:42:57;;;;;;;11.00;9.90;;;;;;;;;;5074036;28;20593;-88
2022/04/02 05:45:26;;;;;;;14.18;11.30;;;0.00;99.90;;;;;;5074188;28;20284;-89
2022/04/02 05:47:54;;;;;;;11.35;9.65;;;;;;;;;;5082916;28;20203;-89
2022/04/02 05:50:24;;;;;;;11.02;8.40;;;;;;;;;;5092345;28;20218;-90
2022/04/02 05:52:51;;;;;;;10.30;9.07;;;;;;;;;;5082039;28;20666;-89
2022/04/02 05:55:18;;;;;;;10.18;9.00;;;;;;;;;;5071743;28;20227;-90
2022/04/02 05:57:48;;;;;;;13.27;11.38;;;0.30;99.90;;;;;;5072009;28;20659;-90
2022/04/02 06:00:18;;;;;;;10.70;9.80;;;0.50;99.90;;;;;;5085344;28;20248;-90
2022/04/02 06:02:46;;;;;;;11.50;10.30;;;0.40;99.90;;;;;;5083816;28;20211;-89
2022/04/02 06:05:15;;;;;;;11.60;10.40;;;0.20;99.90;;;;;;5071060;28;20230;-89
2022/04/02 06:07:43;;;;;;;13.02;10.15;;;;;;;;;;5078862;28;20207;-89
2022/04/02 06:10:10;;;;;;;12.55;11.07;;;0.20;99.90;;;;;;5071958;28;20195;-90
2022/04/02 06:12:38;;;;;;;9.30;8.30;;;0.00;99.90;;;;;;5072258;28;20209;-90
2022/04/02 06:15:09;;;;;;;8.27;7.47;;;0.10;99.90;;;;;;5072465;28;20191;-90
2022/04/02 06:17:58;;;;;;;10.90;9.70;;;-0.50;99.90;;;;;;5081692;28;20212;-90
2022/04/02 06:20:26;;;;;;;9.60;8.57;;;;;;;;;;5058093;28;20204;-89
2022/04/02 06:22:53;;;;;;;11.40;9.55;;;;;;;;;;5068904;28;20234;-88
2022/04/02 06:25:20;;;;;;;9.68;8.68;;;;;;;;;;5069286;28;20748;-88
2022/04/02 06:27:49;;;;;;;10.35;9.13;;;0.00;99.90;;;;;;5082957;28;20282;-87
2022/04/02 06:30:19;;;;;;;10.65;9.55;;;0.10;99.90;;;;;;5069581;28;20203;-87
2022/04/02 06:32:46;;;;;;;9.43;8.13;;;;;;;;;;5088351;28;20195;-88
2022/04/02 06:35:14;;;;;;;9.95;8.95;;;;;;;;;;5087958;28;20199;-87
2022/04/02 06:37:42;;;;;;;12.85;9.93;;;0.20;99.90;;;;;;5075891;28;20257;-87
2022/04/02 06:40:10;;;;;;;9.95;8.90;;;0.50;99.90;;;;;;5070021;28;20246;-87
2022/04/02 06:42:38;;;;;;;9.32;8.05;;;;;;;;;;5070203;28;20284;-86
2022/04/02 06:45:07;;;;;;;9.10;8.20;;;0.10;99.90;;;;;;5088758;28;20223;-87
2022/04/02 06:47:37;;;;;;;8.60;7.13;;;0.00;99.90;;;;;;5085045;28;20674;-87
2022/04/02 06:50:05;;;;;;;9.35;6.93;;;;;;;;;;5070675;28;20243;-86
2022/04/02 06:52:32;;;;;;;11.00;8.98;;;;;;;;;;5090365;28;20206;-86
2022/04/02 06:54:59;;;;;;;9.68;8.20;;;;;;;;;;5088746;28;20248;-88
2022/04/02 06:57:26;;;;;;;10.13;8.60;;;0.40;99.90;;;;;;5091346;28;20198;-88
2022/04/02 06:59:53;;;;;;;10.15;9.02;;;;;;;;;;5081569;28;20203;-87
2022/04/02 07:02:21;;;;;;;7.63;6.88;;;;;;;;;;5081663;28;20256;-86
2022/04/02 07:04:50;;;;;;;10.07;9.00;;;0.10;99.90;;;;;;5083658;28;20210;-87
2022/04/02 07:07:16;;;;;;;11.85;8.40;;;0.10;99.90;;;;;;5090153;28;20209;-87
2022/04/02 07:09:44;;;;;;;11.43;9.23;;;;;;;;;;5078328;28;20230;-88
2022/04/02 07:12:11;;;;;;;9.57;8.57;;;0.20;99.90;;;;;;5070595;28;20243;-87
2022/04/02 07:14:38;;;;;;;18.15;8.48;;;0.20;99.90;;;;;;5084420;28;20195;-87
2022/04/02 07:17:06;;;;;;;9.98;8.98;;;0.10;99.90;;;;;;5090131;28;20191;-87
2022/04/02 07:19:34;;;;;;;10.50;9.40;;;0.20;99.90;;;;;;5075955;28;20202;-87
2022/04/02 07:22:03;;;;;;;13.93;10.07;;;0.30;99.90;;;;;;5067714;28;20774;-87
2022/04/02 07:24:32;;;;;;;11.25;9.35;;;0.30;99.90;;;;;;5069764;28;20629;-87
2022/04/02 07:27:00;;;;;;;8.80;7.40;;;0.20;99.90;;;;;;5069977;28;20583;-87
2022/04/02 07:29:27;;;;;;;9.80;8.35;;;0.20;99.90;;;;;;5081202;28;20657;-87
2022/04/02 07:31:54;;;;;;;11.23;8.55;;;0.30;99.90;;;;;;5089803;28;20214;-87
2022/04/02 07:34:21;;;;;;;12.90;7.68;;;0.30;99.90;;;;;;5086901;28;20199;-87
2022/04/02 07:37:04;;;;;;;9.30;8.13;;;0.30;99.90;;;;;;5089006;28;20198;-86
2022/04/02 07:39:40;;;;;;;9.75;8.52;;;0.20;99.90;;;;;;5078338;28;20195;-88
2022/04/02 07:42:14;;;;;;;9.45;8.45;;;0.30;99.90;;;;;;5049538;28;20913;-86
2022/04/02 07:44:56;;;;;;;10.90;7.90;;;0.40;99.90;;;;;;5049423;28;20218;-87
2022/04/02 07:47:25;;;;;;;12.00;7.07;;;0.20;99.90;;;;;;5051325;28;20625;-87
2022/04/02 07:49:57;;;;;;;9.15;8.05;;;0.20;99.90;;;;;;5089331;28;20268;-87
2022/04/02 07:52:24;;;;;;;15.77;8.70;;;0.30;99.90;;;;;;5078174;28;20203;-87
2022/04/02 07:54:57;;;;;;;10.00;8.38;;;0.30;99.90;;;;;;5068926;28;20199;-87
2022/04/02 07:57:29;;;;;;;11.07;8.52;;;0.20;99.90;;;;;;5068610;28;20195;-87
2022/04/02 08:00:00;;;;;;;10.23;8.45;;;1.40;99.90;;;;;;5068354;28;20207;-87
2022/04/02 08:02:37;;;;;;;10.70;7.97;;;0.20;99.90;;;;;;5069602;28;20227;-87
2022/04/02 08:05:05;;;;;;;8.60;7.32;;;2.10;99.90;;;;;;5069076;28;20195;-87
2022/04/02 08:07:35;;;;;;;12.57;8.95;;;0.30;99.90;;;;;;5069256;28;20231;-87
2022/04/02 08:10:06;;;;;;;12.57;8.32;;;0.40;99.90;;;;;;5068582;28;20203;-86
2022/04/02 08:12:37;;;;;;;8.82;7.70;;;0.30;99.90;;;;;;5069900;28;20214;-89
2022/04/02 08:15:06;;;;;;;9.43;8.43;;;0.30;99.90;;;;;;5068532;28;20248;-89
2022/04/02 08:17:34;;;;;;;7.00;6.30;;;0.30;99.90;;;;;;5070514;28;20211;-88
2022/04/02 08:20:07;;;;;;;10.57;8.05;;;0.30;99.90;;;;;;5067422;28;20204;-90
2022/04/02 08:22:35;;;;;;;7.88;7.07;;;0.30;99.90;;;;;;5074052;28;20206;-89
2022/04/02 08:25:05;;;;;;;10.02;8.50;;;0.30;99.90;;;;;;5071876;28;20237;-90
2022/04/02 08:27:35;;;;;;;9.57;7.18;;;0.90;99.90;;;;;;5075009;28;20235;-89
2022/04/02 08:30:08;;;;;;;7.53;6.82;;;0.10;99.90;;;;;;5070281;28;20195;-89
2022/04/02 08:33:20;;;;;;;10.80;8.77;;;0.10;99.90;;;;;;5073387;28;20325;-89
2022/04/02 08:35:56;;;;;;;8.32;6.32;;;-0.10;99.90;;;;;;5057430;28;20191;-88
2022/04/02 08:38:34;;;;;;;8.60;7.60;;;-0.10;99.90;;;;;;5072226;28;20203;-89
2022/04/02 08:41:48;;;;;;;7.82;6.60;;;0.20;99.90;;;;;;5071568;28;20199;-88
2022/04/02 08:44:39;;;;;;;8.13;7.13;;;0.40;99.90;;;;;;5074871;28;20327;-89
2022/04/02 08:47:26;;;;;;;7.97;6.43;;;0.10;99.90;;;;;;5073443;28;20227;-87
2022/04/02 08:50:06;;;;;;;8.85;6.63;;;0.10;99.90;;;;;;5073966;28;20256;-87
2022/04/02 08:52:51;;;;;;;10.05;7.30;;;0.10;99.90;;;;;;5077349;28;20207;-87
2022/04/02 08:55:20;;;;;;;9.25;7.15;;;0.10;99.90;;;;;;5073842;28;20211;-86
2022/04/02 08:58:19;;;;;;;8.85;7.72;;;0.10;99.90;;;;;;5052229;28;20754;-86
2022/04/02 09:01:03;;;;;;;9.15;7.90;;;0.30;99.90;;;;;;5058251;28;20210;-86
2022/04/02 09:03:57;;;;;;;7.45;4.82;;;0.60;99.90;;;;;;5089202;28;20203;-86
2022/04/02 09:10:35;;;;;;;10.63;9.15;;;0.20;99.90;;;;;;5072916;28;20213;-85
2022/04/02 09:13:36;;;;;;;11.50;7.97;;;0.50;99.90;;;;;;5069885;28;20290;-89
2022/04/02 09:16:05;;;;;;;9.98;8.05;;;0.40;99.90;;;;;;5070327;28;20951;-89
2022/04/02 09:18:38;;;;;;;10.73;8.82;;;0.20;99.90;;;;;;5073742;28;20203;-88
2022/04/02 09:21:29;;;;;;;8.73;7.07;;;0.00;99.90;;;;;;5069321;28;20202;-88
2022/04/02 09:24:09;;;;;;;13.10;9.10;;;-0.20;99.90;;;;;;5066872;28;20288;-87
2022/04/02 09:27:15;;;;;;;11.57;9.80;;;0.20;99.90;;;;;;5069699;28;20302;-88
2022/04/02 09:30:03;;;;;;;12.05;9.52;;;0.20;99.90;;;;;;5068405;28;20226;-88
2022/04/02 09:33:20;;;;;;;13.10;10.07;;;0.30;99.90;;;;;;5070522;28;20253;-88
2022/04/02 09:36:26;;;;;;;10.55;9.45;;;0.30;99.90;;;;;;5069512;28;20278;-89
2022/04/02 09:39:06;;;;;;;12.77;8.98;;;0.10;99.90;;;;;;5070777;28;20203;-88
2022/04/02 09:42:09;;;;;;;6.55;5.93;;;0.20;99.90;;;;;;5071265;28;20206;-87
2022/04/02 09:44:59;;;;;;;11.27;8.55;;;-0.10;99.90;;;;;;5068660;28;20372;-90
2022/04/02 09:47:40;;;;;;;10.68;7.75;;;-0.10;99.90;;;;;;5072334;28;20227;-88
2022/04/02 09:50:12;;;;;;;12.73;9.85;;;-0.10;99.90;;;;;;5072010;28;20712;-89
2022/04/02 09:52:44;;;;;;;12.05;10.45;;;0.20;99.90;;;;;;5071870;28;20200;-88
2022/04/02 09:55:14;;;;;;;7.95;7.15;;;0.20;99.90;;;;;;5070224;28;20260;-89
2022/04/02 09:58:27;;;;;;;11.15;9.65;;;0.50;99.90;;;;;;5075736;28;20195;-87
2022/04/02 10:01:38;;;;;;;13.50;8.95;;;0.30;99.90;;;;;;5042303;28;20191;-89
2022/04/02 10:04:23;;;;;;;13.45;9.63;;;0.50;99.90;;;;;;5072052;28;20283;-89
2022/04/02 10:06:54;;;;;;;13.25;9.68;;;0.00;99.90;;;;;;5070502;28;20653;-89
2022/04/02 10:09:24;;;;;;;11.45;7.57;;;0.10;99.90;;;;;;5062436;28;20195;-89
2022/04/02 10:11:55;;;;;;;9.10;6.93;;;0.10;99.90;;;;;;5070795;28;20203;-88
2022/04/02 10:14:24;;;;;;;12.18;9.90;;;0.10;99.90;;;;;;5067683;28;20199;-88
2022/04/02 10:16:55;;;;;;;11.95;8.63;;;0.30;99.90;;;;;;5069500;28;20280;-88
2022/04/02 10:19:27;;;;;;;12.52;9.30;;;0.30;99.90;;;;;;5073973;28;20192;-89
2022/04/02 10:21:57;;;;;;;14.77;9.85;;;0.30;99.90;;;;;;5072420;28;20282;-89
2022/04/02 10:24:25;;;;;;;12.55;10.25;;;0.30;99.90;;;;;;5067710;28;20257;-89
2022/04/02 10:26:54;;;;;;;11.23;9.80;;;0.30;99.90;;;;;;5068665;28;20273;-88
2022/04/02 10:29:35;;;;;;;9.70;7.32;;;0.50;99.90;;;;;;5065916;28;20204;-88
2022/04/02 10:32:26;;;;;;;12.48;9.50;;;0.20;99.90;;;;;;5070075;28;20195;-88
2022/04/02 10:35:00;;;;;;;21.15;11.07;;;0.30;99.90;;;;;;5065287;28;20250;-89
2022/04/02 10:37:33;;;;;;;7.68;6.40;;;0.30;99.90;;;;;;5071728;28;20199;-87
2022/04/02 10:40:04;;;;;;;13.15;10.55;;;0.00;99.90;;;;;;5069934;28;20296;-86
2022/04/02 10:42:36;;;;;;;12.95;9.98;;;0.20;99.90;;;;;;5070478;28;20200;-86
2022/04/02 10:45:05;;;;;;;11.00;8.30;;;0.20;99.90;;;;;;5070596;28;20289;-86
2022/04/02 10:47:39;;;;;;;12.13;10.00;;;0.20;99.90;;;;;;5078496;28;20223;-86
2022/04/02 10:50:08;;;;;;;11.10;9.35;;;2.30;99.90;;;;;;5068023;28;20305;-86
2022/04/02 10:52:38;;;;;;;13.43;9.75;;;0.40;99.90;;;;;;5083762;28;20199;-86
2022/04/02 10:55:06;;;;;;;10.38;9.35;;;0.30;99.90;;;;;;5082590;28;20257;-86
2022/04/02 10:57:34;;;;;;;12.02;10.10;;;0.20;99.90;;;;;;5068218;28;20274;-86
2022/04/02 11:00:04;;;;;;;13.85;11.10;;;0.30;99.90;;;;;;5068912;28;20712;-86
2022/04/02 11:02:40;;;;;;;12.25;10.77;;;0.50;99.90;;;;;;5068580;28;20235;-87
2022/04/02 11:05:08;;;;;;;14.07;11.48;;;0.60;99.90;;;;;;5068821;28;20688;-87
2022/04/02 11:07:40;;;;;;;12.07;10.85;;;0.60;99.90;;;;;;5068408;28;20235;-86
2022/04/02 11:10:08;;;;;;;9.77;8.77;;;0.60;99.90;;;;;;5088027;28;20195;-85
2022/04/02 11:12:41;;;;;;;18.80;10.00;;;0.60;99.90;;;;;;5074166;28;20206;-86
2022/04/02 11:15:10;;;;;;;13.18;10.52;;;0.50;99.90;;;;;;5071150;28;20215;-86
2022/04/02 11:17:41;;;;;;;12.48;9.40;;;0.90;99.90;;;;;;5084186;28;20195;-85
2022/04/02 11:20:11;;;;;;;9.50;8.52;;;0.60;99.90;;;;;;5084075;28;20210;-86
2022/04/02 11:22:49;;;;;;;15.15;11.27;;;0.40;99.90;;;;;;5071505;28;20278;-86
2022/04/02 11:25:22;;;;;;;14.05;11.30;;;0.60;99.90;;;;;;5060658;28;20199;-86
2022/04/02 11:27:51;;;;;;;12.30;9.45;;;0.50;99.90;;;;;;5060350;28;20302;-86
2022/04/02 11:30:19;;;;;;;12.15;10.55;;;0.50;99.90;;;;;;5068262;28;20203;-86
2022/04/02 11:32:50;;;;;;;12.38;9.88;;;0.60;99.90;;;;;;5070503;28;20712;-86
2022/04/02 11:35:22;;;;;;;10.70;9.60;;;0.60;99.90;;;;;;5057162;28;20277;-86
2022/04/02 11:38:02;;;;;;;12.20;10.75;;;1.10;99.90;;;;;;5069792;28;20245;-86
2022/04/02 11:40:31;;;;;;;11.55;10.35;;;1.00;99.90;;;;;;5066365;28;20199;-86
2022/04/02 11:43:02;;;;;;;14.27;10.95;;;1.10;99.90;;;;;;5079013;28;20210;-85
2022/04/02 11:45:29;;;;;;;11.52;10.30;;;;;;;;;;5048068;28;20305;-85
2022/04/02 11:48:08;;;;;;;17.05;11.85;;;1.50;99.90;;;;;;5063986;28;20234;-85
2022/04/02 11:50:38;;;;;;;15.98;11.38;;;1.50;99.90;;;;;;5074691;28;20203;-85
2022/04/02 11:53:05;;;;;;;14.43;11.40;;;1.70;99.90;;;;;;5078057;28;20727;-85
2022/04/02 11:55:35;;;;;;;12.40;10.98;;;1.40;99.90;;;;;;5073145;28;20213;-85
2022/04/02 11:58:07;;;;;;;12.63;11.15;;;1.40;99.90;;;;;;5074922;28;20199;-86
2022/04/02 12:00:36;;;;;;;12.00;9.07;;;1.40;99.90;;;;;;5068957;28;20210;-86
2022/04/02 12:03:08;;;;;;;21.73;10.25;;;0.80;99.90;;;;;;5076846;28;20234;-86
2022/04/02 12:05:42;;;;;;;13.02;10.68;;;0.80;99.90;;;;;;5074007;28;20195;-86
2022/04/02 12:08:10;;;;;;;17.50;10.88;;;0.80;99.90;;;;;;5072806;28;20233;-86
2022/04/02 12:10:45;;;;;;;15.52;11.20;;;1.10;99.90;;;;;;5075227;28;20203;-89
2022/04/02 12:13:12;;;;;;;12.82;11.45;;;1.10;99.90;;;;;;5076394;28;20205;-89
2022/04/02 12:15:43;;;;;;;14.40;12.65;;;1.10;99.90;;;;;;5076821;28;20207;-89
2022/04/02 12:18:13;;;;;;;13.50;9.75;;;1.00;99.90;;;;;;5076219;28;20206;-88
2022/04/02 12:20:41;;;;;;;15.40;12.00;;;0.90;99.90;;;;;;5073355;28;20206;-87
2022/04/02 12:23:11;;;;;;;14.95;12.88;;;1.00;99.90;;;;;;5071910;28;20252;-89
2022/04/02 12:25:39;;;;;;;15.68;12.27;;;1.00;99.90;;;;;;5074216;28;20199;-86
2022/04/02 12:28:15;;;;;;;15.50;12.45;;;1.20;99.90;;;;;;5066589;28;20250;-88
2022/04/02 12:30:46;;;;;;;14.30;12.05;;;1.10;99.90;;;;;;5070118;28;20272;-87
2022/04/02 12:33:18;;;;;;;14.52;13.02;;;1.20;99.90;;;;;;5074468;28;20211;-86
2022/04/02 12:35:48;;;;;;;13.20;10.60;;;1.10;99.90;;;;;;5072134;28;20200;-87
2022/04/02 12:38:27;;;;;;;15.32;12.38;;;0.90;99.90;;;;;;5069339;28;20205;-87
2022/04/02 12:40:56;;;;;;;16.27;11.80;;;1.10;99.90;;;;;;5070228;28;20688;-86
2022/04/02 12:43:31;;;;;;;15.63;13.05;;;1.20;99.90;;;;;;5071078;28;20199;-87
2022/04/02 12:45:59;;;;;;;15.93;12.30;;;1.10;99.90;;;;;;5085324;28;20285;-85
2022/04/02 12:48:41;;;;;;;14.93;12.02;;;1.10;99.90;;;;;;5086534;28;20222;-85
2022/04/02 12:51:14;;;;;;;15.75;12.48;;;1.10;99.90;;;;;;5090854;28;20689;-86
2022/04/02 12:53:42;;;;;;;13.77;12.15;;;1.10;99.90;;;;;;5073947;28;20211;-85
2022/04/02 12:56:10;;;;;;;17.63;13.25;;;1.30;99.90;;;;;;5076764;28;20644;-85
2022/04/02 12:58:39;;;;;;;17.73;13.07;;;1.30;99.90;;;;;;5075001;28;20261;-86
2022/04/02 13:01:13;;;;;;;16.42;13.70;;;1.20;99.90;;;;;;5070688;28;20210;-85
2022/04/02 13:03:45;;;;;;;17.25;12.65;;;1.20;99.90;;;;;;5070532;28;20199;-86
2022/04/02 13:06:20;;;;;;;16.30;13.32;;;1.10;99.90;;;;;;5066460;28;20980;-86
2022/04/02 13:09:07;;;;;;;;;;;;;;;;;;;;;
2022/04/02 13:12:00;;;;;;;16.67;13.20;;;1.10;99.90;;;;;;5061982;28;20693;-85
2022/04/02 13:14:30;;;;;;;16.52;13.63;;;1.10;99.90;;;;;;5069704;28;20925;-85
2022/04/02 13:17:08;;;;;;;17.63;13.77;;;1.20;99.90;;;;;;5079274;28;20198;-85
2022/04/02 13:22:39;;;;;;;16.50;12.27;;;1.10;99.90;;;;;;5070027;28;20203;-85
2022/04/02 13:25:13;;;;;;;17.52;14.35;;;1.10;99.90;;;;;;5059816;28;20302;-86
2022/04/02 13:28:10;;;;;;;14.23;12.15;;;1.00;99.90;;;;;;5065730;28;20230;-86
2022/04/02 13:30:38;;;;;;;25.33;19.58;;;1.20;99.90;;;;;;5067790;28;20302;-85
2022/04/02 13:33:47;;;;;;;20.77;16.73;;;1.20;99.90;;;;;;5068206;28;20207;-85
2022/04/02 13:36:25;;;;;;;15.18;12.07;;;0.90;99.90;;;;;;5062026;28;20402;-85